sensor_id;sensor_type;location;lat;lon;timestamp;P1;durP1;ratioP1;P2;durP2;ratioP2
4345;SDS011;2186;49.866;7.986;2022-07-23T00:01:04;6.10;;;3.23;;
4345;SDS011;2186;49.866;7.986;2022-07-23T00:03:30;2.30;;;2.20;;
4345;SDS011;2186;49.866;7.986;2022-07-23T00:05:57;2.60;;;2.50;;
4345;SDS011;2186;49.866;7.986;2022-07-23T00:08:23;3.30;;;3.00;;
4345;SDS011;2186;49.866;7.986;2022-07-23T00:10:50;3.63;;;3.00;;
4345;SDS011;2186;49.866;7.986;2022-07-23T00:13:16;3.20;;;3.00;;
4345;SDS011;2186;49.866;7.986;2022-07-23T00:15:43;5.60;;;2.40;;
4345;SDS011;2186;49.866;7.986;2022-07-23T00:18:09;3.33;;;3.03;;
4345;SDS011;2186;49.866;7.986;2022-07-23T00:20:36;3.20;;;2.90;;
4345;SDS011;2186;49.866;7.986;2022-07-23T00:23:02;4.20;;;3.80;;
4345;SDS011;2186;49.866;7.986;2022-07-23T00:25:29;3.90;;;3.47;;
4345;SDS011;2186;49.866;7.986;2022-07-23T00:27:57;4.17;;;2.90;;
4345;SDS011;2186;49.866;7.986;2022-07-23T00:30:24;2.50;;;2.40;;
4345;SDS011;2186;49.866;7.986;2022-07-23T00:32:54;3.33;;;3.07;;
4345;SDS011;2186;49.866;7.986;2022-07-23T00:35:24;3.20;;;3.00;;
4345;SDS011;2186;49.866;7.986;2022-07-23T00:37:52;2.50;;;2.30;;
4345;SDS011;2186;49.866;7.986;2022-07-23T00:40:19;3.50;;;3.17;;
4345;SDS011;2186;49.866;7.986;2022-07-23T00:42:45;3.17;;;2.97;;
4345;SDS011;2186;49.866;7.986;2022-07-23T00:45:12;3.00;;;2.70;;
4345;SDS011;2186;49.866;7.986;2022-07-23T00:47:38;3.10;;;2.90;;
4345;SDS011;2186;49.866;7.986;2022-07-23T00:50:06;3.83;;;3.53;;
4345;SDS011;2186;49.866;7.986;2022-07-23T00:52:35;5.20;;;3.10;;
4345;SDS011;2186;49.866;7.986;2022-07-23T00:55:06;9.03;;;3.23;;
4345;SDS011;2186;49.866;7.986;2022-07-23T00:57:35;5.00;;;4.60;;
4345;SDS011;2186;49.866;7.986;2022-07-23T01:00:03;4.43;;;3.57;;
4345;SDS011;2186;49.866;7.986;2022-07-23T01:02:32;3.47;;;3.20;;
4345;SDS011;2186;49.866;7.986;2022-07-23T01:04:58;2.97;;;2.77;;
4345;SDS011;2186;49.866;7.986;2022-07-23T01:07:25;4.30;;;3.90;;
4345;SDS011;2186;49.866;7.986;2022-07-23T01:09:52;4.13;;;3.20;;
4345;SDS011;2186;49.866;7.986;2022-07-23T01:12:18;3.90;;;3.60;;
4345;SDS011;2186;49.866;7.986;2022-07-23T01:14:45;4.07;;;2.50;;
4345;SDS011;2186;49.866;7.986;2022-07-23T01:17:11;3.23;;;2.93;;
4345;SDS011;2186;49.866;7.986;2022-07-23T01:19:37;3.97;;;3.67;;
4345;SDS011;2186;49.866;7.986;2022-07-23T01:22:04;13.57;;;3.83;;
4345;SDS011;2186;49.866;7.986;2022-07-23T01:24:31;7.77;;;3.83;;
4345;SDS011;2186;49.866;7.986;2022-07-23T01:26:58;4.30;;;4.00;;
4345;SDS011;2186;49.866;7.986;2022-07-23T01:29:24;4.07;;;3.70;;
4345;SDS011;2186;49.866;7.986;2022-07-23T01:31:51;8.80;;;3.20;;
4345;SDS011;2186;49.866;7.986;2022-07-23T01:34:17;3.27;;;3.07;;
4345;SDS011;2186;49.866;7.986;2022-07-23T01:36:44;3.30;;;3.00;;
4345;SDS011;2186;49.866;7.986;2022-07-23T01:39:11;4.23;;;3.93;;
4345;SDS011;2186;49.866;7.986;2022-07-23T01:41:37;4.30;;;4.00;;
4345;SDS011;2186;49.866;7.986;2022-07-23T01:44:05;7.50;;;3.83;;
4345;SDS011;2186;49.866;7.986;2022-07-23T01:46:31;4.20;;;3.87;;
4345;SDS011;2186;49.866;7.986;2022-07-23T01:48:57;5.40;;;4.77;;
4345;SDS011;2186;49.866;7.986;2022-07-23T01:51:25;33.57;;;3.87;;
4345;SDS011;2186;49.866;7.986;2022-07-23T01:53:51;4.00;;;3.57;;
4345;SDS011;2186;49.866;7.986;2022-07-23T01:56:18;3.83;;;3.60;;
4345;SDS011;2186;49.866;7.986;2022-07-23T01:58:47;4.80;;;3.97;;
4345;SDS011;2186;49.866;7.986;2022-07-23T02:01:14;3.37;;;3.10;;
4345;SDS011;2186;49.866;7.986;2022-07-23T02:03:41;4.30;;;4.10;;
4345;SDS011;2186;49.866;7.986;2022-07-23T02:06:07;4.43;;;4.03;;
4345;SDS011;2186;49.866;7.986;2022-07-23T02:08:34;4.10;;;3.90;;
4345;SDS011;2186;49.866;7.986;2022-07-23T02:11:00;5.30;;;4.20;;
4345;SDS011;2186;49.866;7.986;2022-07-23T02:13:27;8.37;;;4.50;;
4345;SDS011;2186;49.866;7.986;2022-07-23T02:15:59;3.43;;;3.23;;
4345;SDS011;2186;49.866;7.986;2022-07-23T02:18:26;3.70;;;3.23;;
4345;SDS011;2186;49.866;7.986;2022-07-23T02:20:52;18.73;;;4.00;;
4345;SDS011;2186;49.866;7.986;2022-07-23T02:23:19;5.23;;;4.50;;
4345;SDS011;2186;49.866;7.986;2022-07-23T02:25:45;6.80;;;3.87;;
4345;SDS011;2186;49.866;7.986;2022-07-23T02:28:12;3.60;;;3.30;;
4345;SDS011;2186;49.866;7.986;2022-07-23T02:30:38;5.20;;;4.90;;
4345;SDS011;2186;49.866;7.986;2022-07-23T02:33:06;5.57;;;5.00;;
4345;SDS011;2186;49.866;7.986;2022-07-23T02:35:32;5.23;;;3.93;;
4345;SDS011;2186;49.866;7.986;2022-07-23T02:37:59;8.33;;;4.10;;
4345;SDS011;2186;49.866;7.986;2022-07-23T02:40:25;4.00;;;3.70;;
4345;SDS011;2186;49.866;7.986;2022-07-23T02:42:51;4.67;;;4.27;;
4345;SDS011;2186;49.866;7.986;2022-07-23T02:45:18;3.97;;;3.30;;
4345;SDS011;2186;49.866;7.986;2022-07-23T02:47:44;8.57;;;4.57;;
4345;SDS011;2186;49.866;7.986;2022-07-23T02:50:11;7.20;;;4.47;;
4345;SDS011;2186;49.866;7.986;2022-07-23T02:52:38;5.37;;;4.87;;
4345;SDS011;2186;49.866;7.986;2022-07-23T02:55:06;6.90;;;4.97;;
4345;SDS011;2186;49.866;7.986;2022-07-23T02:57:32;5.67;;;4.37;;
4345;SDS011;2186;49.866;7.986;2022-07-23T02:59:59;5.43;;;4.80;;
4345;SDS011;2186;49.866;7.986;2022-07-23T03:02:26;5.20;;;4.80;;
4345;SDS011;2186;49.866;7.986;2022-07-23T03:04:52;4.07;;;3.77;;
4345;SDS011;2186;49.866;7.986;2022-07-23T03:07:19;6.33;;;4.60;;
4345;SDS011;2186;49.866;7.986;2022-07-23T03:09:45;5.37;;;4.90;;
4345;SDS011;2186;49.866;7.986;2022-07-23T03:12:13;5.43;;;4.60;;
4345;SDS011;2186;49.866;7.986;2022-07-23T03:14:40;6.23;;;4.77;;
4345;SDS011;2186;49.866;7.986;2022-07-23T03:17:07;4.57;;;4.20;;
4345;SDS011;2186;49.866;7.986;2022-07-23T03:19:34;4.93;;;4.63;;
4345;SDS011;2186;49.866;7.986;2022-07-23T03:22:00;5.00;;;4.50;;
4345;SDS011;2186;49.866;7.986;2022-07-23T03:24:27;4.50;;;4.20;;
4345;SDS011;2186;49.866;7.986;2022-07-23T03:27:13;4.37;;;4.07;;
4345;SDS011;2186;49.866;7.986;2022-07-23T03:29:40;5.83;;;5.33;;
4345;SDS011;2186;49.866;7.986;2022-07-23T03:32:06;4.77;;;4.47;;
4345;SDS011;2186;49.866;7.986;2022-07-23T03:34:33;7.73;;;4.77;;
4345;SDS011;2186;49.866;7.986;2022-07-23T03:36:59;6.03;;;5.40;;
4345;SDS011;2186;49.866;7.986;2022-07-23T03:39:28;5.07;;;4.60;;
4345;SDS011;2186;49.866;7.986;2022-07-23T03:41:54;7.70;;;4.93;;
4345;SDS011;2186;49.866;7.986;2022-07-23T03:44:21;6.73;;;6.20;;
4345;SDS011;2186;49.866;7.986;2022-07-23T03:46:47;9.33;;;5.40;;
4345;SDS011;2186;49.866;7.986;2022-07-23T03:49:14;4.73;;;4.33;;
4345;SDS011;2186;49.866;7.986;2022-07-23T03:51:41;10.40;;;5.47;;
4345;SDS011;2186;49.866;7.986;2022-07-23T03:54:07;6.27;;;5.80;;
4345;SDS011;2186;49.866;7.986;2022-07-23T03:56:34;5.73;;;5.20;;
4345;SDS011;2186;49.866;7.986;2022-07-23T03:59:00;5.93;;;5.10;;
4345;SDS011;2186;49.866;7.986;2022-07-23T04:01:27;6.37;;;4.67;;
4345;SDS011;2186;49.866;7.986;2022-07-23T04:03:54;4.10;;;3.80;;
4345;SDS011;2186;49.866;7.986;2022-07-23T04:06:20;6.27;;;5.77;;
4345;SDS011;2186;49.866;7.986;2022-07-23T04:08:47;5.43;;;4.30;;
4345;SDS011;2186;49.866;7.986;2022-07-23T04:11:13;4.03;;;3.73;;
4345;SDS011;2186;49.866;7.986;2022-07-23T04:13:40;9.70;;;5.83;;
4345;SDS011;2186;49.866;7.986;2022-07-23T04:16:06;5.93;;;5.20;;
4345;SDS011;2186;49.866;7.986;2022-07-23T04:18:33;5.10;;;4.67;;
4345;SDS011;2186;49.866;7.986;2022-07-23T04:21:00;7.83;;;5.50;;
4345;SDS011;2186;49.866;7.986;2022-07-23T04:23:26;5.30;;;4.23;;
4345;SDS011;2186;49.866;7.986;2022-07-23T04:25:53;13.43;;;5.37;;
4345;SDS011;2186;49.866;7.986;2022-07-23T04:28:19;11.60;;;4.60;;
4345;SDS011;2186;49.866;7.986;2022-07-23T04:30:46;29.83;;;5.50;;
4345;SDS011;2186;49.866;7.986;2022-07-23T04:33:12;5.70;;;4.90;;
4345;SDS011;2186;49.866;7.986;2022-07-23T04:35:39;11.70;;;4.53;;
4345;SDS011;2186;49.866;7.986;2022-07-23T04:38:05;5.97;;;5.37;;
4345;SDS011;2186;49.866;7.986;2022-07-23T04:40:33;6.83;;;6.00;;
4345;SDS011;2186;49.866;7.986;2022-07-23T04:43:00;6.40;;;5.30;;
4345;SDS011;2186;49.866;7.986;2022-07-23T04:45:26;16.43;;;5.73;;
4345;SDS011;2186;49.866;7.986;2022-07-23T04:47:55;6.57;;;5.20;;
4345;SDS011;2186;49.866;7.986;2022-07-23T04:50:23;4.70;;;4.23;;
4345;SDS011;2186;49.866;7.986;2022-07-23T04:52:50;5.73;;;5.10;;
4345;SDS011;2186;49.866;7.986;2022-07-23T04:55:17;4.53;;;4.13;;
4345;SDS011;2186;49.866;7.986;2022-07-23T04:57:44;5.20;;;4.80;;
4345;SDS011;2186;49.866;7.986;2022-07-23T05:00:10;6.10;;;5.03;;
4345;SDS011;2186;49.866;7.986;2022-07-23T05:02:37;6.20;;;5.57;;
4345;SDS011;2186;49.866;7.986;2022-07-23T05:05:04;12.63;;;4.23;;
4345;SDS011;2186;49.866;7.986;2022-07-23T05:07:30;4.90;;;4.50;;
4345;SDS011;2186;49.866;7.986;2022-07-23T05:09:57;12.00;;;7.37;;
4345;SDS011;2186;49.866;7.986;2022-07-23T05:12:23;6.10;;;5.50;;
4345;SDS011;2186;49.866;7.986;2022-07-23T05:14:50;5.70;;;5.20;;
4345;SDS011;2186;49.866;7.986;2022-07-23T05:17:17;5.90;;;5.30;;
4345;SDS011;2186;49.866;7.986;2022-07-23T05:19:44;6.00;;;5.20;;
4345;SDS011;2186;49.866;7.986;2022-07-23T05:22:10;6.70;;;6.00;;
4345;SDS011;2186;49.866;7.986;2022-07-23T05:24:37;5.13;;;4.73;;
4345;SDS011;2186;49.866;7.986;2022-07-23T05:27:03;6.37;;;5.67;;
4345;SDS011;2186;49.866;7.986;2022-07-23T05:29:30;10.00;;;6.63;;
4345;SDS011;2186;49.866;7.986;2022-07-23T05:31:56;9.43;;;5.10;;
4345;SDS011;2186;49.866;7.986;2022-07-23T05:34:23;5.53;;;5.07;;
4345;SDS011;2186;49.866;7.986;2022-07-23T05:36:49;13.53;;;5.93;;
4345;SDS011;2186;49.866;7.986;2022-07-23T05:39:16;6.00;;;5.40;;
4345;SDS011;2186;49.866;7.986;2022-07-23T05:41:42;4.33;;;4.03;;
4345;SDS011;2186;49.866;7.986;2022-07-23T05:44:09;8.00;;;5.20;;
4345;SDS011;2186;49.866;7.986;2022-07-23T05:46:36;4.10;;;3.90;;
4345;SDS011;2186;49.866;7.986;2022-07-23T05:49:02;10.30;;;5.60;;
4345;SDS011;2186;49.866;7.986;2022-07-23T05:51:29;5.47;;;4.97;;
4345;SDS011;2186;49.866;7.986;2022-07-23T05:53:56;4.90;;;4.47;;
4345;SDS011;2186;49.866;7.986;2022-07-23T05:56:22;7.47;;;4.77;;
4345;SDS011;2186;49.866;7.986;2022-07-23T05:58:49;10.80;;;6.03;;
4345;SDS011;2186;49.866;7.986;2022-07-23T06:01:15;5.60;;;5.20;;
4345;SDS011;2186;49.866;7.986;2022-07-23T06:03:42;8.17;;;5.57;;
4345;SDS011;2186;49.866;7.986;2022-07-23T06:06:08;5.10;;;4.70;;
4345;SDS011;2186;49.866;7.986;2022-07-23T06:08:35;4.90;;;3.80;;
4345;SDS011;2186;49.866;7.986;2022-07-23T06:11:01;5.90;;;5.40;;
4345;SDS011;2186;49.866;7.986;2022-07-23T06:13:28;5.53;;;5.13;;
4345;SDS011;2186;49.866;7.986;2022-07-23T06:15:54;6.10;;;4.10;;
4345;SDS011;2186;49.866;7.986;2022-07-23T06:18:21;4.20;;;4.00;;
4345;SDS011;2186;49.866;7.986;2022-07-23T06:20:48;5.07;;;4.30;;
4345;SDS011;2186;49.866;7.986;2022-07-23T06:23:17;7.13;;;4.80;;
4345;SDS011;2186;49.866;7.986;2022-07-23T06:25:43;4.10;;;3.90;;
4345;SDS011;2186;49.866;7.986;2022-07-23T06:28:10;8.80;;;4.13;;
4345;SDS011;2186;49.866;7.986;2022-07-23T06:30:36;5.17;;;4.80;;
4345;SDS011;2186;49.866;7.986;2022-07-23T06:33:03;7.20;;;4.07;;
4345;SDS011;2186;49.866;7.986;2022-07-23T06:35:30;5.07;;;4.67;;
4345;SDS011;2186;49.866;7.986;2022-07-23T06:37:57;8.43;;;5.17;;
4345;SDS011;2186;49.866;7.986;2022-07-23T06:40:23;5.30;;;4.50;;
4345;SDS011;2186;49.866;7.986;2022-07-23T06:42:50;4.47;;;4.07;;
4345;SDS011;2186;49.866;7.986;2022-07-23T06:45:16;5.00;;;4.70;;
4345;SDS011;2186;49.866;7.986;2022-07-23T06:47:43;5.17;;;4.80;;
4345;SDS011;2186;49.866;7.986;2022-07-23T06:50:09;6.17;;;4.97;;
4345;SDS011;2186;49.866;7.986;2022-07-23T06:52:36;5.67;;;4.90;;
4345;SDS011;2186;49.866;7.986;2022-07-23T06:55:07;4.90;;;4.50;;
4345;SDS011;2186;49.866;7.986;2022-07-23T06:57:34;4.90;;;3.30;;
4345;SDS011;2186;49.866;7.986;2022-07-23T07:00:01;5.13;;;4.60;;
4345;SDS011;2186;49.866;7.986;2022-07-23T07:02:28;13.43;;;4.67;;
4345;SDS011;2186;49.866;7.986;2022-07-23T07:04:54;4.97;;;4.73;;
4345;SDS011;2186;49.866;7.986;2022-07-23T07:07:30;2.80;;;2.63;;
4345;SDS011;2186;49.866;7.986;2022-07-23T07:09:56;3.20;;;2.83;;
4345;SDS011;2186;49.866;7.986;2022-07-23T07:12:23;4.17;;;3.77;;
4345;SDS011;2186;49.866;7.986;2022-07-23T07:14:49;5.30;;;5.00;;
4345;SDS011;2186;49.866;7.986;2022-07-23T07:17:16;4.47;;;3.90;;
4345;SDS011;2186;49.866;7.986;2022-07-23T07:19:42;5.10;;;3.93;;
4345;SDS011;2186;49.866;7.986;2022-07-23T07:22:09;3.70;;;3.50;;
4345;SDS011;2186;49.866;7.986;2022-07-23T07:24:35;3.73;;;3.40;;
4345;SDS011;2186;49.866;7.986;2022-07-23T07:27:04;5.20;;;4.83;;
4345;SDS011;2186;49.866;7.986;2022-07-23T07:29:31;5.67;;;5.27;;
4345;SDS011;2186;49.866;7.986;2022-07-23T07:31:57;17.03;;;5.80;;
4345;SDS011;2186;49.866;7.986;2022-07-23T07:34:24;5.53;;;5.13;;
4345;SDS011;2186;49.866;7.986;2022-07-23T07:36:50;4.13;;;3.80;;
4345;SDS011;2186;49.866;7.986;2022-07-23T07:39:17;5.90;;;3.90;;
4345;SDS011;2186;49.866;7.986;2022-07-23T07:41:43;4.90;;;4.50;;
4345;SDS011;2186;49.866;7.986;2022-07-23T07:44:10;9.00;;;3.30;;
4345;SDS011;2186;49.866;7.986;2022-07-23T07:46:36;3.90;;;3.70;;
4345;SDS011;2186;49.866;7.986;2022-07-23T07:49:03;5.17;;;4.83;;
4345;SDS011;2186;49.866;7.986;2022-07-23T07:51:31;5.03;;;4.57;;
4345;SDS011;2186;49.866;7.986;2022-07-23T07:53:58;3.87;;;3.57;;
4345;SDS011;2186;49.866;7.986;2022-07-23T07:56:27;5.03;;;4.73;;
4345;SDS011;2186;49.866;7.986;2022-07-23T07:58:53;5.53;;;5.13;;
4345;SDS011;2186;49.866;7.986;2022-07-23T08:01:20;4.10;;;3.70;;
4345;SDS011;2186;49.866;7.986;2022-07-23T08:03:46;5.10;;;4.80;;
4345;SDS011;2186;49.866;7.986;2022-07-23T08:06:13;4.87;;;4.57;;
4345;SDS011;2186;49.866;7.986;2022-07-23T08:08:40;7.87;;;4.77;;
4345;SDS011;2186;49.866;7.986;2022-07-23T08:11:06;5.30;;;5.00;;
4345;SDS011;2186;49.866;7.986;2022-07-23T08:13:33;3.80;;;3.60;;
4345;SDS011;2186;49.866;7.986;2022-07-23T08:15:59;3.43;;;3.23;;
4345;SDS011;2186;49.866;7.986;2022-07-23T08:18:26;4.50;;;3.50;;
4345;SDS011;2186;49.866;7.986;2022-07-23T08:20:53;4.23;;;3.93;;
4345;SDS011;2186;49.866;7.986;2022-07-23T08:23:19;3.60;;;3.30;;
4345;SDS011;2186;49.866;7.986;2022-07-23T08:25:46;7.13;;;3.70;;
4345;SDS011;2186;49.866;7.986;2022-07-23T08:28:13;13.70;;;4.53;;
4345;SDS011;2186;49.866;7.986;2022-07-23T08:30:41;5.40;;;5.07;;
4345;SDS011;2186;49.866;7.986;2022-07-23T08:33:12;15.33;;;4.30;;
4345;SDS011;2186;49.866;7.986;2022-07-23T08:35:59;4.77;;;4.20;;
4345;SDS011;2186;49.866;7.986;2022-07-23T08:38:29;3.87;;;3.53;;
4345;SDS011;2186;49.866;7.986;2022-07-23T08:40:56;3.83;;;3.53;;
4345;SDS011;2186;49.866;7.986;2022-07-23T08:43:28;3.80;;;3.47;;
4345;SDS011;2186;49.866;7.986;2022-07-23T08:45:57;5.40;;;4.87;;
4345;SDS011;2186;49.866;7.986;2022-07-23T08:48:28;4.70;;;4.30;;
4345;SDS011;2186;49.866;7.986;2022-07-23T08:50:56;4.30;;;3.90;;
4345;SDS011;2186;49.866;7.986;2022-07-23T08:53:27;4.30;;;4.00;;
4345;SDS011;2186;49.866;7.986;2022-07-23T08:55:59;6.20;;;4.30;;
4345;SDS011;2186;49.866;7.986;2022-07-23T08:58:28;4.63;;;3.90;;
4345;SDS011;2186;49.866;7.986;2022-07-23T09:00:55;7.10;;;3.80;;
4345;SDS011;2186;49.866;7.986;2022-07-23T09:03:27;4.90;;;4.50;;
4345;SDS011;2186;49.866;7.986;2022-07-23T09:05:56;3.77;;;3.47;;
4345;SDS011;2186;49.866;7.986;2022-07-23T09:08:42;5.83;;;4.17;;
4345;SDS011;2186;49.866;7.986;2022-07-23T09:11:11;5.93;;;3.83;;
4345;SDS011;2186;49.866;7.986;2022-07-23T09:13:40;4.87;;;4.57;;
4345;SDS011;2186;49.866;7.986;2022-07-23T09:16:15;5.87;;;4.57;;
4345;SDS011;2186;49.866;7.986;2022-07-23T09:18:44;10.47;;;3.90;;
4345;SDS011;2186;49.866;7.986;2022-07-23T09:24:01;4.30;;;4.03;;
4345;SDS011;2186;49.866;7.986;2022-07-23T09:34:27;3.60;;;3.30;;
4345;SDS011;2186;49.866;7.986;2022-07-23T09:36:55;7.60;;;3.47;;
4345;SDS011;2186;49.866;7.986;2022-07-23T09:39:43;3.13;;;2.93;;
4345;SDS011;2186;49.866;7.986;2022-07-23T09:44:48;3.20;;;3.00;;
4345;SDS011;2186;49.866;7.986;2022-07-23T09:47:16;2.87;;;2.67;;
4345;SDS011;2186;49.866;7.986;2022-07-23T09:50:05;4.50;;;4.30;;
4345;SDS011;2186;49.866;7.986;2022-07-23T09:52:45;12.20;;;3.73;;
4345;SDS011;2186;49.866;7.986;2022-07-23T09:55:14;36.00;;;4.10;;
4345;SDS011;2186;49.866;7.986;2022-07-23T09:57:42;4.80;;;3.10;;
4345;SDS011;2186;49.866;7.986;2022-07-23T10:00:16;5.33;;;3.43;;
4345;SDS011;2186;49.866;7.986;2022-07-23T10:02:42;29.37;;;4.90;;
4345;SDS011;2186;49.866;7.986;2022-07-23T10:05:12;3.63;;;3.40;;
4345;SDS011;2186;49.866;7.986;2022-07-23T10:07:39;4.47;;;3.10;;
4345;SDS011;2186;49.866;7.986;2022-07-23T10:10:08;4.30;;;3.33;;
4345;SDS011;2186;49.866;7.986;2022-07-23T10:12:36;3.63;;;3.43;;
4345;SDS011;2186;49.866;7.986;2022-07-23T10:15:05;2.90;;;2.70;;
4345;SDS011;2186;49.866;7.986;2022-07-23T10:17:33;3.00;;;2.77;;
4345;SDS011;2186;49.866;7.986;2022-07-23T10:20:01;3.00;;;2.80;;
4345;SDS011;2186;49.866;7.986;2022-07-23T10:22:33;6.77;;;2.60;;
4345;SDS011;2186;49.866;7.986;2022-07-23T10:41:37;3.40;;;3.17;;
4345;SDS011;2186;49.866;7.986;2022-07-23T10:44:10;4.53;;;3.30;;
4345;SDS011;2186;49.866;7.986;2022-07-23T10:49:35;3.37;;;3.10;;
4345;SDS011;2186;49.866;7.986;2022-07-23T10:57:13;3.47;;;3.17;;
4345;SDS011;2186;49.866;7.986;2022-07-23T11:00:23;4.60;;;3.77;;
4345;SDS011;2186;49.866;7.986;2022-07-23T11:02:33;3.13;;;2.70;;
4345;SDS011;2186;49.866;7.986;2022-07-23T11:05:03;3.27;;;3.03;;
4345;SDS011;2186;49.866;7.986;2022-07-23T11:07:31;5.63;;;3.23;;
4345;SDS011;2186;49.866;7.986;2022-07-23T11:09:57;3.60;;;3.37;;
4345;SDS011;2186;49.866;7.986;2022-07-23T11:17:31;3.70;;;3.43;;
4345;SDS011;2186;49.866;7.986;2022-07-23T11:22:35;4.70;;;4.40;;
4345;SDS011;2186;49.866;7.986;2022-07-23T11:25:08;3.60;;;3.40;;
4345;SDS011;2186;49.866;7.986;2022-07-23T11:27:38;3.40;;;3.10;;
4345;SDS011;2186;49.866;7.986;2022-07-23T11:30:07;3.70;;;3.50;;
4345;SDS011;2186;49.866;7.986;2022-07-23T11:32:36;3.73;;;3.43;;
4345;SDS011;2186;49.866;7.986;2022-07-23T11:35:26;3.73;;;3.53;;
4345;SDS011;2186;49.866;7.986;2022-07-23T11:37:54;3.17;;;3.00;;
4345;SDS011;2186;49.866;7.986;2022-07-23T11:40:30;6.53;;;3.20;;
4345;SDS011;2186;49.866;7.986;2022-07-23T11:43:04;10.03;;;3.20;;
4345;SDS011;2186;49.866;7.986;2022-07-23T11:45:36;3.10;;;2.90;;
4345;SDS011;2186;49.866;7.986;2022-07-23T11:48:05;4.50;;;3.27;;
4345;SDS011;2186;49.866;7.986;2022-07-23T11:50:34;8.23;;;4.13;;
4345;SDS011;2186;49.866;7.986;2022-07-23T11:53:01;7.20;;;2.80;;
4345;SDS011;2186;49.866;7.986;2022-07-23T11:55:29;3.70;;;3.50;;
4345;SDS011;2186;49.866;7.986;2022-07-23T11:57:55;4.03;;;3.70;;
4345;SDS011;2186;49.866;7.986;2022-07-23T12:00:26;3.20;;;2.90;;
4345;SDS011;2186;49.866;7.986;2022-07-23T12:02:59;4.60;;;3.00;;
4345;SDS011;2186;49.866;7.986;2022-07-23T12:05:30;2.70;;;2.60;;
4345;SDS011;2186;49.866;7.986;2022-07-23T12:07:59;3.60;;;3.30;;
4345;SDS011;2186;49.866;7.986;2022-07-23T12:10:32;3.53;;;3.10;;
4345;SDS011;2186;49.866;7.986;2022-07-23T12:13:11;2.67;;;2.47;;
4345;SDS011;2186;49.866;7.986;2022-07-23T12:15:40;2.50;;;2.30;;
4345;SDS011;2186;49.866;7.986;2022-07-23T12:18:10;6.53;;;3.27;;
4345;SDS011;2186;49.866;7.986;2022-07-23T12:20:40;3.00;;;2.80;;
4345;SDS011;2186;49.866;7.986;2022-07-23T12:23:09;3.97;;;3.03;;
4345;SDS011;2186;49.866;7.986;2022-07-23T12:25:38;6.10;;;3.30;;
4345;SDS011;2186;49.866;7.986;2022-07-23T12:28:13;3.13;;;2.60;;
4345;SDS011;2186;49.866;7.986;2022-07-23T12:30:42;2.60;;;2.50;;
4345;SDS011;2186;49.866;7.986;2022-07-23T12:33:11;4.40;;;3.17;;
4345;SDS011;2186;49.866;7.986;2022-07-23T12:35:40;3.27;;;2.97;;
4345;SDS011;2186;49.866;7.986;2022-07-23T12:38:14;7.23;;;3.00;;
4345;SDS011;2186;49.866;7.986;2022-07-23T12:40:44;3.67;;;3.37;;
4345;SDS011;2186;49.866;7.986;2022-07-23T12:43:23;2.53;;;2.43;;
4345;SDS011;2186;49.866;7.986;2022-07-23T12:45:56;2.60;;;2.40;;
4345;SDS011;2186;49.866;7.986;2022-07-23T12:51:28;3.43;;;3.23;;
4345;SDS011;2186;49.866;7.986;2022-07-23T12:56:33;3.63;;;2.37;;
4345;SDS011;2186;49.866;7.986;2022-07-23T12:59:09;3.10;;;2.90;;
4345;SDS011;2186;49.866;7.986;2022-07-23T13:01:57;13.50;;;3.77;;
4345;SDS011;2186;49.866;7.986;2022-07-23T13:04:28;3.00;;;2.83;;
4345;SDS011;2186;49.866;7.986;2022-07-23T13:06:55;2.93;;;2.60;;
4345;SDS011;2186;49.866;7.986;2022-07-23T13:09:26;3.13;;;2.93;;
4345;SDS011;2186;49.866;7.986;2022-07-23T13:12:01;2.80;;;2.60;;
4345;SDS011;2186;49.866;7.986;2022-07-23T13:14:28;2.50;;;2.40;;
4345;SDS011;2186;49.866;7.986;2022-07-23T13:16:54;3.20;;;3.00;;
4345;SDS011;2186;49.866;7.986;2022-07-23T13:19:24;2.03;;;1.93;;
4345;SDS011;2186;49.866;7.986;2022-07-23T13:21:53;3.67;;;3.47;;
4345;SDS011;2186;49.866;7.986;2022-07-23T13:24:20;3.70;;;3.50;;
4345;SDS011;2186;49.866;7.986;2022-07-23T13:26:47;3.13;;;2.60;;
4345;SDS011;2186;49.866;7.986;2022-07-23T13:29:15;4.40;;;4.00;;
4345;SDS011;2186;49.866;7.986;2022-07-23T13:31:45;4.00;;;2.70;;
4345;SDS011;2186;49.866;7.986;2022-07-23T13:34:11;3.70;;;3.50;;
4345;SDS011;2186;49.866;7.986;2022-07-23T13:36:38;4.43;;;2.63;;
4345;SDS011;2186;49.866;7.986;2022-07-23T13:39:04;4.80;;;2.83;;
4345;SDS011;2186;49.866;7.986;2022-07-23T13:41:35;6.07;;;2.60;;
4345;SDS011;2186;49.866;7.986;2022-07-23T13:44:03;5.43;;;2.87;;
4345;SDS011;2186;49.866;7.986;2022-07-23T13:46:29;3.03;;;2.83;;
4345;SDS011;2186;49.866;7.986;2022-07-23T13:48:56;2.60;;;2.37;;
4345;SDS011;2186;49.866;7.986;2022-07-23T13:51:23;3.10;;;2.73;;
4345;SDS011;2186;49.866;7.986;2022-07-23T13:53:51;2.87;;;2.70;;
4345;SDS011;2186;49.866;7.986;2022-07-23T13:56:18;2.57;;;2.47;;
4345;SDS011;2186;49.866;7.986;2022-07-23T13:58:45;3.70;;;2.73;;
4345;SDS011;2186;49.866;7.986;2022-07-23T14:01:11;2.97;;;2.27;;
4345;SDS011;2186;49.866;7.986;2022-07-23T14:03:38;2.97;;;2.73;;
4345;SDS011;2186;49.866;7.986;2022-07-23T14:06:05;3.70;;;2.90;;
4345;SDS011;2186;49.866;7.986;2022-07-23T14:08:41;3.00;;;2.90;;
4345;SDS011;2186;49.866;7.986;2022-07-23T14:11:09;3.37;;;3.17;;
4345;SDS011;2186;49.866;7.986;2022-07-23T14:13:36;3.10;;;2.90;;
4345;SDS011;2186;49.866;7.986;2022-07-23T14:16:03;2.80;;;2.60;;
4345;SDS011;2186;49.866;7.986;2022-07-23T14:18:30;2.60;;;2.50;;
4345;SDS011;2186;49.866;7.986;2022-07-23T14:20:59;2.57;;;2.37;;
4345;SDS011;2186;49.866;7.986;2022-07-23T14:23:25;3.07;;;2.93;;
4345;SDS011;2186;49.866;7.986;2022-07-23T14:25:52;2.37;;;2.27;;
4345;SDS011;2186;49.866;7.986;2022-07-23T14:28:19;3.40;;;3.10;;
4345;SDS011;2186;49.866;7.986;2022-07-23T14:30:46;2.40;;;2.20;;
4345;SDS011;2186;49.866;7.986;2022-07-23T14:33:14;3.03;;;2.80;;
4345;SDS011;2186;49.866;7.986;2022-07-23T14:35:42;3.23;;;2.93;;
4345;SDS011;2186;49.866;7.986;2022-07-23T14:38:09;3.30;;;2.83;;
4345;SDS011;2186;49.866;7.986;2022-07-23T14:40:39;2.43;;;2.23;;
4345;SDS011;2186;49.866;7.986;2022-07-23T14:43:05;2.47;;;2.37;;
4345;SDS011;2186;49.866;7.986;2022-07-23T14:45:35;2.40;;;2.20;;
4345;SDS011;2186;49.866;7.986;2022-07-23T14:48:02;1.67;;;1.57;;
4345;SDS011;2186;49.866;7.986;2022-07-23T14:50:29;2.33;;;2.23;;
4345;SDS011;2186;49.866;7.986;2022-07-23T14:52:56;2.47;;;2.37;;
4345;SDS011;2186;49.866;7.986;2022-07-23T14:55:22;2.30;;;2.20;;
4345;SDS011;2186;49.866;7.986;2022-07-23T14:57:49;3.67;;;3.23;;
4345;SDS011;2186;49.866;7.986;2022-07-23T15:00:16;2.70;;;2.50;;
4345;SDS011;2186;49.866;7.986;2022-07-23T15:02:43;3.33;;;3.03;;
4345;SDS011;2186;49.866;7.986;2022-07-23T15:05:18;14.63;;;2.80;;
4345;SDS011;2186;49.866;7.986;2022-07-23T15:07:45;3.20;;;3.00;;
4345;SDS011;2186;49.866;7.986;2022-07-23T15:10:13;5.03;;;1.93;;
4345;SDS011;2186;49.866;7.986;2022-07-23T15:12:40;3.10;;;2.80;;
4345;SDS011;2186;49.866;7.986;2022-07-23T15:15:06;5.00;;;2.63;;
4345;SDS011;2186;49.866;7.986;2022-07-23T15:17:35;2.50;;;2.40;;
4345;SDS011;2186;49.866;7.986;2022-07-23T15:20:02;3.33;;;3.03;;
4345;SDS011;2186;49.866;7.986;2022-07-23T15:22:29;3.47;;;2.90;;
4345;SDS011;2186;49.866;7.986;2022-07-23T15:24:55;16.63;;;9.77;;
4345;SDS011;2186;49.866;7.986;2022-07-23T15:27:23;2.53;;;2.33;;
4345;SDS011;2186;49.866;7.986;2022-07-23T15:29:50;2.50;;;2.37;;
4345;SDS011;2186;49.866;7.986;2022-07-23T15:32:17;2.90;;;2.60;;
4345;SDS011;2186;49.866;7.986;2022-07-23T15:34:44;2.53;;;2.33;;
4345;SDS011;2186;49.866;7.986;2022-07-23T15:37:13;2.80;;;2.30;;
4345;SDS011;2186;49.866;7.986;2022-07-23T15:39:39;2.53;;;2.33;;
4345;SDS011;2186;49.866;7.986;2022-07-23T15:42:06;2.13;;;2.03;;
4345;SDS011;2186;49.866;7.986;2022-07-23T15:44:40;1.80;;;1.70;;
4345;SDS011;2186;49.866;7.986;2022-07-23T15:47:08;2.83;;;2.73;;
4345;SDS011;2186;49.866;7.986;2022-07-23T15:49:38;1.70;;;1.60;;
4345;SDS011;2186;49.866;7.986;2022-07-23T15:52:06;2.00;;;1.90;;
4345;SDS011;2186;49.866;7.986;2022-07-23T15:54:33;1.93;;;1.83;;
4345;SDS011;2186;49.866;7.986;2022-07-23T15:57:00;2.37;;;2.17;;
4345;SDS011;2186;49.866;7.986;2022-07-23T15:59:32;2.60;;;2.40;;
4345;SDS011;2186;49.866;7.986;2022-07-23T16:01:59;2.03;;;1.93;;
4345;SDS011;2186;49.866;7.986;2022-07-23T16:04:25;3.03;;;2.83;;
4345;SDS011;2186;49.866;7.986;2022-07-23T16:06:52;2.07;;;1.97;;
4345;SDS011;2186;49.866;7.986;2022-07-23T16:09:19;2.30;;;2.20;;
4345;SDS011;2186;49.866;7.986;2022-07-23T16:11:45;2.60;;;2.40;;